Beaver County Airport Beaver Falls US
ICAO: KBVI
IATA: BFP
Category: Medium
Scheduled Services: No

Elevation: 1253 ft
TransAlt. 18000 ft.

Airport Communications:
PITTSBURGH APP/DEP:124.75
ATIS:118.35
PITTSBURGH CLNC DEL:124.85
CTAF:120.3
GND:121.8
ALTOONA RDO:115.8
TWR:120.3

KBVI Zoom In..

If you have problems with the map follow the link
https://www.worldairports.se/pages/airport.php?
ICAO=KBVI

Runways:

(A) RW 10 length 4501 ft width 100 ft
LOC 109.30 / hdg 101

(B) RW 28 length 4501 ft width 100 ft
LOC 109.30 / hdg 281

Location; KBVI
Day. 26 / Time. 01.15 Zulu
* Altimeter: 29.87
* Temperature: 01° c. 33.8°f.
* Wind from: 240° Speed 09 kn with Gusts up to 16 kn.
Dewpoint: 00° c.
Visibility: 2 Statute Miles.
Clouds: Overcast 700 ft.
Conditions: Light Snow.

KBVI 260115Z AUTO 24009G16KT 2SM -SN OVC007 01/00 A2987 RMK AO2 T00110001


Wind From 240°
Speed 09 kn.

 
 
jpsmedia worldairports.se 2020   terms of use